createdAt,value
2023-05-10T00:00:37.453Z,32.44
2023-05-10T00:01:37.487Z,30.81
2023-05-10T00:02:37.622Z,30.69
2023-05-10T00:03:37.720Z,31.11
2023-05-10T00:04:37.760Z,33.84
2023-05-10T00:05:37.692Z,31.93
2023-05-10T00:06:37.769Z,32.49
2023-05-10T00:07:37.786Z,31.90
2023-05-10T00:08:37.977Z,31.03
2023-05-10T00:09:37.881Z,33.06
2023-05-10T00:10:37.999Z,32.60
2023-05-10T00:11:37.992Z,35.41
2023-05-10T00:12:38.027Z,34.22
2023-05-10T00:13:38.366Z,33.89
2023-05-10T00:14:38.124Z,34.27
2023-05-10T00:15:38.206Z,33.62
2023-05-10T00:16:38.313Z,34.50
2023-05-10T00:17:38.317Z,32.01
2023-05-10T00:18:38.397Z,29.65
2023-05-10T00:19:38.358Z,33.30
2023-05-10T00:20:38.416Z,30.29
2023-05-10T00:21:38.438Z,30.68
2023-05-10T00:22:38.535Z,32.68
2023-05-10T00:23:38.566Z,33.81
2023-05-10T00:24:38.661Z,33.37
2023-05-10T00:25:38.710Z,34.11
2023-05-10T00:26:38.775Z,35.08
2023-05-10T00:27:38.802Z,33.02
2023-05-10T00:28:38.885Z,32.40
2023-05-10T00:29:38.895Z,33.44
2023-05-10T00:30:38.948Z,34.62
2023-05-10T00:31:39.033Z,32.18
2023-05-10T00:32:39.104Z,33.15
2023-05-10T00:33:39.118Z,32.97
2023-05-10T00:34:39.166Z,34.40
2023-05-10T00:35:39.191Z,33.57
2023-05-10T00:36:39.292Z,32.56
2023-05-10T00:37:39.305Z,34.51
2023-05-10T00:38:39.403Z,33.63
2023-05-10T00:39:39.423Z,32.06
2023-05-10T00:40:39.472Z,33.23
2023-05-10T00:41:39.512Z,32.68
2023-05-10T00:42:39.571Z,32.77
2023-05-10T00:43:39.892Z,33.69
2023-05-10T00:44:39.707Z,32.55
2023-05-10T00:45:39.734Z,33.54
2023-05-10T00:46:39.805Z,35.28
2023-05-10T00:47:39.868Z,35.54
2023-05-10T00:48:39.907Z,34.57
2023-05-10T00:49:39.960Z,32.75
2023-05-10T00:50:40.021Z,36.14
2023-05-10T00:51:40.068Z,33.77
2023-05-10T00:52:40.130Z,32.91
2023-05-10T00:53:40.164Z,34.93
2023-05-10T00:54:40.195Z,32.89
2023-05-10T00:55:40.267Z,31.15
2023-05-10T00:56:40.298Z,34.64
2023-05-10T00:57:40.357Z,35.49
2023-05-10T00:58:40.434Z,32.78
2023-05-10T00:59:40.484Z,33.77
2023-05-10T01:00:40.499Z,35.20
2023-05-10T01:01:40.575Z,33.84
2023-05-10T01:02:40.682Z,35.64
2023-05-10T01:03:41.014Z,34.74
2023-05-10T01:04:40.731Z,35.10
2023-05-10T01:05:40.747Z,34.45
2023-05-10T01:06:40.800Z,34.78
2023-05-10T01:07:40.857Z,35.84
2023-05-10T01:08:40.898Z,35.43
2023-05-10T01:09:40.932Z,37.48
2023-05-10T01:10:40.984Z,34.69
2023-05-10T01:11:41.031Z,36.85
2023-05-10T01:12:41.119Z,35.29
2023-05-10T01:13:41.145Z,35.19
2023-05-10T01:14:41.152Z,35.01
2023-05-10T01:15:41.241Z,35.93
2023-05-10T01:16:41.255Z,37.15
2023-05-10T01:17:41.395Z,37.82
2023-05-10T01:18:41.351Z,35.40
2023-05-10T01:19:41.413Z,36.81
2023-05-10T01:20:41.444Z,36.41
2023-05-10T01:21:41.491Z,37.76
2023-05-10T01:22:41.562Z,35.58
2023-05-10T01:23:41.902Z,38.05
2023-05-10T01:24:41.685Z,37.19
2023-05-10T01:25:41.739Z,37.55
2023-05-10T01:26:41.779Z,35.83
2023-05-10T01:27:41.847Z,39.44
2023-05-10T01:28:41.927Z,37.22
2023-05-10T01:29:41.920Z,36.80
2023-05-10T01:30:41.979Z,35.73
2023-05-10T01:31:42.036Z,36.11
2023-05-10T01:32:42.141Z,39.46
2023-05-10T01:33:42.411Z,39.52
2023-05-10T01:34:42.166Z,38.86
2023-05-10T01:35:42.232Z,37.26
2023-05-10T01:36:42.296Z,37.81
2023-05-10T01:37:42.342Z,36.91
2023-05-10T01:38:42.384Z,37.65
2023-05-10T01:39:42.436Z,36.66
2023-05-10T01:40:42.465Z,37.60
2023-05-10T01:41:42.528Z,35.93
2023-05-10T01:42:42.591Z,36.68
2023-05-10T01:43:42.602Z,39.49
2023-05-10T01:44:42.688Z,35.35
2023-05-10T01:45:42.704Z,35.34
2023-05-10T01:46:42.825Z,34.70
2023-05-10T01:47:42.874Z,36.18
2023-05-10T01:48:42.882Z,36.81
2023-05-10T01:49:42.917Z,36.44
2023-05-10T01:50:42.949Z,39.28
2023-05-10T01:51:43.003Z,38.59
2023-05-10T01:52:43.060Z,36.94
2023-05-10T01:53:43.107Z,37.01
2023-05-10T01:54:43.163Z,40.43
2023-05-10T01:55:43.184Z,40.20
2023-05-10T01:56:43.263Z,36.13
2023-05-10T01:57:43.274Z,38.57
2023-05-10T01:58:43.362Z,40.31
2023-05-10T01:59:43.379Z,38.09
2023-05-10T02:00:43.472Z,39.53
2023-05-10T02:01:43.513Z,38.26
2023-05-10T02:02:43.639Z,38.48
2023-05-10T02:03:43.625Z,37.56
2023-05-10T02:04:43.669Z,37.50
2023-05-10T02:05:43.668Z,39.78
2023-05-10T02:06:43.751Z,38.65
2023-05-10T02:07:43.803Z,36.26
2023-05-10T02:08:43.823Z,40.13
2023-05-10T02:09:43.886Z,39.98
2023-05-10T02:10:43.948Z,38.01
2023-05-10T02:11:43.936Z,41.01
2023-05-10T02:12:44.038Z,38.64
2023-05-10T02:13:44.413Z,40.76
2023-05-10T02:14:44.073Z,39.21
2023-05-10T02:15:44.120Z,40.98
2023-05-10T02:16:44.206Z,41.12
2023-05-10T02:17:44.239Z,39.24
2023-05-10T02:18:44.281Z,41.14
2023-05-10T02:19:44.337Z,38.75
2023-05-10T02:20:44.355Z,39.21
2023-05-10T02:21:44.409Z,39.03
2023-05-10T02:22:44.426Z,38.36
2023-05-10T02:23:44.491Z,38.38
2023-05-10T02:24:44.518Z,38.58
2023-05-10T02:25:44.589Z,41.37
2023-05-10T02:26:44.600Z,39.40
2023-05-10T02:27:44.683Z,37.58
2023-05-10T02:28:44.694Z,39.66
2023-05-10T02:29:44.793Z,40.33
2023-05-10T02:30:44.788Z,41.09
2023-05-10T02:31:44.868Z,39.30
2023-05-10T02:32:44.905Z,38.64
2023-05-10T02:33:44.912Z,40.66
2023-05-10T02:34:44.949Z,38.38
2023-05-10T02:35:45.015Z,40.56
2023-05-10T02:36:45.063Z,38.15
2023-05-10T02:37:45.103Z,37.52
2023-05-10T02:38:45.110Z,37.04
2023-05-10T02:39:45.154Z,40.63
2023-05-10T02:40:45.225Z,37.98
2023-05-10T02:41:45.251Z,39.00
2023-05-10T02:42:45.285Z,39.05
2023-05-10T02:43:45.403Z,37.89
2023-05-10T02:44:45.931Z,37.41
2023-05-10T02:45:45.496Z,39.25
2023-05-10T02:46:45.454Z,38.22
2023-05-10T02:47:45.607Z,39.76
2023-05-10T02:48:45.555Z,39.09
2023-05-10T02:49:45.583Z,39.62
2023-05-10T02:50:45.653Z,40.67
2023-05-10T02:51:45.705Z,39.20
2023-05-10T02:52:45.746Z,36.27
2023-05-10T02:53:45.774Z,40.29
2023-05-10T02:54:45.825Z,41.19
2023-05-10T02:55:45.858Z,40.96
2023-05-10T02:56:45.936Z,36.41
2023-05-10T02:57:45.969Z,40.90
2023-05-10T02:58:45.976Z,40.44
2023-05-10T02:59:46.075Z,38.86
2023-05-10T03:00:46.069Z,39.34
2023-05-10T03:01:46.207Z,39.78
2023-05-10T03:02:46.191Z,40.13
2023-05-10T03:03:46.432Z,41.62
2023-05-10T03:04:46.260Z,36.39
2023-05-10T03:05:46.239Z,39.35
2023-05-10T03:06:46.297Z,39.12
2023-05-10T03:07:46.320Z,38.22
2023-05-10T03:08:46.361Z,38.67
2023-05-10T03:09:46.373Z,38.50
2023-05-10T03:10:46.427Z,39.21
2023-05-10T03:11:46.485Z,39.52
2023-05-10T03:12:46.546Z,37.92
2023-05-10T03:13:46.580Z,40.60
2023-05-10T03:14:46.567Z,37.42
2023-05-10T03:15:46.654Z,40.15
2023-05-10T03:16:46.661Z,40.31
2023-05-10T03:17:46.724Z,40.89
2023-05-10T03:18:46.736Z,39.56
2023-05-10T03:19:46.779Z,37.97
2023-05-10T03:20:46.809Z,38.18
2023-05-10T03:21:46.846Z,40.82
2023-05-10T03:22:46.853Z,38.79
2023-05-10T03:23:46.876Z,38.32
2023-05-10T03:24:46.909Z,38.10
2023-05-10T03:25:46.946Z,39.28
2023-05-10T03:26:46.998Z,39.17
2023-05-10T03:27:47.018Z,40.34
2023-05-10T03:28:47.044Z,39.76
2023-05-10T03:29:47.079Z,36.82
2023-05-10T03:30:47.138Z,37.20
2023-05-10T03:31:47.239Z,38.58
2023-05-10T03:32:47.203Z,36.67
2023-05-10T03:33:47.494Z,38.80
2023-05-10T03:34:47.291Z,36.59
2023-05-10T03:35:47.336Z,40.82
2023-05-10T03:36:47.310Z,38.63
2023-05-10T03:37:47.329Z,39.96
2023-05-10T03:38:47.462Z,38.06
2023-05-10T03:39:47.378Z,39.41
2023-05-10T03:40:47.385Z,35.86
2023-05-10T03:41:47.450Z,37.36
2023-05-10T03:42:47.458Z,40.29
2023-05-10T03:43:47.503Z,38.50
2023-05-10T03:44:47.509Z,35.83
2023-05-10T03:45:47.524Z,35.01
2023-05-10T03:46:47.708Z,37.98
2023-05-10T03:47:47.620Z,37.17
2023-05-10T03:48:47.650Z,38.73
2023-05-10T03:49:47.646Z,35.52
2023-05-10T03:50:47.729Z,40.35
2023-05-10T03:51:47.731Z,39.73
2023-05-10T03:52:47.734Z,38.39
2023-05-10T03:53:47.772Z,37.84
2023-05-10T03:54:47.819Z,37.22
2023-05-10T03:55:47.806Z,37.98
2023-05-10T03:56:47.881Z,38.95
2023-05-10T03:57:47.913Z,38.87
2023-05-10T03:58:47.923Z,38.51
2023-05-10T03:59:47.953Z,38.07
2023-05-10T04:00:47.987Z,40.28
2023-05-10T04:01:48.039Z,40.41
2023-05-10T04:02:48.056Z,41.53
2023-05-10T04:03:48.177Z,38.79
2023-05-10T04:04:48.074Z,38.44
2023-05-10T04:05:48.128Z,38.69
2023-05-10T04:06:48.221Z,39.25
2023-05-10T04:07:48.217Z,39.13
2023-05-10T04:08:48.491Z,37.76
2023-05-10T04:09:48.256Z,38.22
2023-05-10T04:10:48.256Z,38.77
2023-05-10T04:11:48.280Z,39.88
2023-05-10T04:12:48.352Z,37.41
2023-05-10T04:13:48.358Z,38.73
2023-05-10T04:14:48.384Z,38.09
2023-05-10T04:15:48.348Z,38.13
2023-05-10T04:16:48.502Z,38.70
2023-05-10T04:17:48.467Z,40.67
2023-05-10T04:18:48.512Z,38.88
2023-05-10T04:19:48.535Z,36.48
2023-05-10T04:20:48.574Z,36.46
2023-05-10T04:21:48.575Z,40.04
2023-05-10T04:22:48.737Z,38.31
2023-05-10T04:23:48.662Z,36.49
2023-05-10T04:24:48.666Z,39.60
2023-05-10T04:25:48.680Z,36.63
2023-05-10T04:26:48.676Z,37.38
2023-05-10T04:27:48.730Z,37.18
2023-05-10T04:28:48.740Z,37.62
2023-05-10T04:29:48.794Z,39.35
2023-05-10T04:30:48.854Z,38.08
2023-05-10T04:31:48.817Z,39.11
2023-05-10T04:32:48.838Z,37.11
2023-05-10T04:33:48.872Z,39.81
2023-05-10T04:34:48.875Z,38.09
2023-05-10T04:35:48.875Z,37.09
2023-05-10T04:36:48.922Z,38.82
2023-05-10T04:37:48.930Z,37.71
2023-05-10T04:38:48.962Z,37.26
2023-05-10T04:39:48.932Z,36.50
2023-05-10T04:40:48.983Z,35.95
2023-05-10T04:41:48.979Z,35.97
2023-05-10T04:42:49.015Z,35.80
2023-05-10T04:43:49.042Z,33.77
2023-05-10T04:44:49.053Z,35.03
2023-05-10T04:45:49.056Z,36.90
2023-05-10T04:46:49.103Z,35.58
2023-05-10T04:47:49.177Z,36.54
2023-05-10T04:48:49.119Z,36.85
2023-05-10T04:49:49.129Z,36.24
2023-05-10T04:50:49.140Z,35.54
2023-05-10T04:51:49.152Z,32.28
2023-05-10T04:52:49.170Z,35.15
2023-05-10T04:53:57.802Z,36.50
2023-05-10T04:54:50.165Z,36.70
2023-05-10T04:55:49.170Z,36.96
2023-05-10T04:56:49.191Z,37.87
2023-05-10T04:57:49.143Z,36.71
2023-05-10T04:58:49.168Z,35.94
2023-05-10T04:59:50.343Z,36.75
2023-05-10T05:00:49.137Z,36.93
2023-05-10T05:01:49.188Z,37.84
2023-05-10T05:02:49.333Z,37.79
2023-05-10T05:03:49.207Z,37.72
2023-05-10T05:04:49.151Z,34.58
2023-05-10T05:05:49.113Z,52.46
2023-05-10T05:06:49.429Z,82.33
2023-05-10T05:07:49.117Z,79.67
2023-05-10T05:08:49.111Z,78.34
2023-05-10T05:09:49.475Z,75.66
2023-05-10T05:10:49.136Z,81.55
2023-05-10T05:11:49.125Z,76.23
2023-05-10T05:12:49.186Z,81.88
2023-05-10T05:13:49.169Z,74.00
2023-05-10T05:14:49.486Z,76.79
2023-05-10T05:15:49.220Z,76.30
2023-05-10T05:16:49.232Z,73.08
2023-05-10T05:17:49.251Z,69.77
2023-05-10T05:18:49.330Z,65.71
2023-05-10T05:19:49.257Z,67.92
2023-05-10T05:20:49.286Z,68.00
2023-05-10T05:21:49.295Z,67.38
2023-05-10T05:22:49.316Z,69.66
2023-05-10T05:23:49.329Z,69.04
2023-05-10T05:24:49.386Z,66.42
2023-05-10T05:25:49.380Z,70.57
2023-05-10T05:26:49.420Z,68.17
2023-05-10T05:27:49.464Z,68.35
2023-05-10T05:28:49.514Z,70.03
2023-05-10T05:29:50.038Z,69.54
2023-05-10T05:30:49.583Z,69.29
2023-05-10T05:31:49.643Z,69.50
2023-05-10T05:32:49.664Z,70.79
2023-05-10T05:33:49.641Z,69.92
2023-05-10T05:34:50.012Z,64.84
2023-05-10T05:35:49.764Z,68.51
2023-05-10T05:36:49.766Z,74.33
2023-05-10T05:37:49.728Z,73.18
2023-05-10T05:38:49.778Z,70.22
2023-05-10T05:39:49.794Z,69.34
2023-05-10T05:40:49.890Z,71.94
2023-05-10T05:41:49.849Z,68.60
2023-05-10T05:42:49.929Z,69.90
2023-05-10T05:43:49.925Z,69.30
2023-05-10T05:44:50.029Z,69.78
2023-05-10T05:45:50.035Z,70.50
2023-05-10T05:46:50.038Z,72.59
2023-05-10T05:47:50.075Z,82.42
2023-05-10T05:48:50.093Z,82.89
2023-05-10T05:49:50.536Z,81.85
2023-05-10T05:50:50.127Z,85.12
2023-05-10T05:51:50.181Z,74.91
2023-05-10T05:52:50.150Z,75.41
2023-05-10T05:53:50.193Z,75.99
2023-05-10T05:54:50.507Z,83.86
2023-05-10T05:55:50.273Z,86.12
2023-05-10T05:56:50.264Z,85.12
2023-05-10T05:57:50.323Z,89.70
2023-05-10T05:58:50.387Z,88.90
2023-05-10T05:59:50.440Z,91.07
2023-05-10T06:00:50.581Z,95.57
2023-05-10T06:01:50.520Z,95.10
2023-05-10T06:02:50.576Z,96.76
2023-05-10T06:03:51.932Z,96.97
2023-05-10T06:04:51.026Z,97.69
2023-05-10T06:05:50.594Z,97.81
2023-05-10T06:06:50.516Z,95.08
2023-05-10T06:07:50.516Z,96.02
2023-05-10T06:08:50.518Z,95.30
2023-05-10T06:09:50.499Z,94.19
2023-05-10T06:10:50.529Z,94.06
2023-05-10T06:11:50.482Z,97.66
2023-05-10T06:12:50.589Z,95.65
2023-05-10T06:13:50.464Z,94.84
2023-05-10T06:14:50.539Z,99.22
2023-05-10T06:15:50.434Z,99.72
2023-05-10T06:16:50.501Z,96.66
2023-05-10T06:17:50.502Z,100.46
2023-05-10T06:18:50.413Z,98.37
2023-05-10T06:19:50.469Z,100.40
2023-05-10T06:20:50.429Z,103.92
2023-05-10T06:21:53.107Z,107.10
2023-05-10T06:22:50.424Z,107.18
2023-05-10T06:23:50.400Z,106.28
2023-05-10T06:24:50.506Z,105.39
2023-05-10T06:25:50.412Z,106.67
2023-05-10T06:26:50.389Z,100.70
2023-05-10T06:27:53.607Z,98.53
2023-05-10T06:28:50.439Z,99.06
2023-05-10T06:29:54.263Z,99.68
2023-05-10T06:30:51.366Z,99.18
2023-05-10T06:31:50.486Z,100.53
2023-05-10T06:32:50.423Z,102.24
2023-05-10T06:33:50.434Z,102.88
2023-05-10T06:34:50.525Z,105.73
2023-05-10T06:35:50.368Z,103.46
2023-05-10T06:36:50.314Z,104.34
2023-05-10T06:37:50.367Z,104.50
2023-05-10T06:38:50.399Z,100.43
2023-05-10T06:39:50.409Z,102.29
2023-05-10T06:40:50.418Z,104.87
2023-05-10T06:41:50.445Z,103.70
2023-05-10T06:42:50.496Z,104.17
2023-05-10T06:43:50.539Z,101.01
2023-05-10T06:44:50.610Z,101.14
2023-05-10T06:45:50.610Z,99.84
2023-05-10T06:46:50.801Z,101.37
2023-05-10T06:47:50.697Z,102.78
2023-05-10T06:48:50.691Z,103.75
2023-05-10T06:49:50.813Z,101.50
2023-05-10T06:50:50.767Z,102.79
2023-05-10T06:51:50.794Z,102.12
2023-05-10T06:52:52.983Z,101.36
2023-05-10T06:53:50.938Z,99.63
2023-05-10T06:54:51.033Z,104.76
2023-05-10T06:55:50.871Z,91.25
2023-05-10T06:56:50.881Z,92.09
2023-05-10T06:57:50.909Z,100.77
2023-05-10T06:58:51.223Z,102.20
2023-05-10T06:59:50.993Z,110.93
2023-05-10T07:00:51.038Z,116.68
2023-05-10T07:01:51.035Z,123.13
2023-05-10T07:02:51.095Z,129.88
2023-05-10T07:03:51.145Z,138.07
2023-05-10T07:04:51.170Z,147.12
2023-05-10T07:05:51.177Z,152.55
2023-05-10T07:06:51.208Z,160.97
2023-05-10T07:07:51.244Z,166.26
2023-05-10T07:08:51.250Z,169.90
2023-05-10T07:09:51.331Z,175.92
2023-05-10T07:10:51.334Z,178.08
2023-05-10T07:11:51.356Z,184.53
2023-05-10T07:12:51.384Z,187.24
2023-05-10T07:13:51.363Z,190.43
2023-05-10T07:14:51.565Z,195.72
2023-05-10T07:15:51.400Z,201.88
2023-05-10T07:16:51.391Z,204.35
2023-05-10T07:17:51.525Z,210.38
2023-05-10T07:18:51.471Z,213.04
2023-05-10T07:19:51.506Z,221.97
2023-05-10T07:20:51.582Z,227.65
2023-05-10T07:21:51.577Z,233.56
2023-05-10T07:22:51.626Z,238.90
2023-05-10T07:23:51.688Z,246.71
2023-05-10T07:24:52.012Z,246.39
2023-05-10T07:25:51.757Z,250.00
2023-05-10T07:26:51.804Z,248.79
2023-05-10T07:27:51.880Z,248.65
2023-05-10T07:28:51.925Z,249.28
2023-05-10T07:29:51.997Z,248.50
2023-05-10T07:30:52.050Z,248.46
2023-05-10T07:31:52.061Z,247.86
2023-05-10T07:32:52.060Z,250.00
2023-05-10T07:33:52.103Z,247.29
2023-05-10T07:34:52.184Z,248.27
2023-05-10T07:35:52.174Z,249.78
2023-05-10T07:36:52.228Z,245.85
2023-05-10T07:37:52.244Z,249.21
2023-05-10T07:38:52.302Z,250.00
2023-05-10T07:39:52.324Z,250.00
2023-05-10T07:40:52.365Z,248.56
2023-05-10T07:41:52.419Z,246.66
2023-05-10T07:42:52.418Z,250.25
2023-05-10T07:43:52.468Z,247.59
2023-05-10T07:44:52.549Z,250.00
2023-05-10T07:45:55.378Z,250.00
2023-05-10T07:46:52.518Z,224.24
2023-05-10T07:47:52.615Z,149.45
2023-05-10T07:48:52.584Z,92.05
2023-05-10T07:49:52.538Z,57.93
2023-05-10T07:50:52.504Z,52.34
2023-05-10T07:51:52.476Z,53.67
2023-05-10T07:52:52.444Z,33.66
2023-05-10T07:53:52.447Z,27.67
2023-05-10T07:54:52.457Z,26.98
2023-05-10T07:55:52.427Z,37.78
2023-05-10T07:56:52.442Z,36.56
2023-05-10T07:57:52.463Z,37.34
2023-05-10T07:58:52.438Z,27.13
2023-05-10T07:59:52.567Z,40.86
2023-05-10T08:00:52.406Z,70.37
2023-05-10T08:01:52.405Z,82.74
2023-05-10T08:02:52.514Z,89.59
2023-05-10T08:03:52.530Z,97.82
2023-05-10T08:04:52.588Z,102.97
2023-05-10T08:05:52.428Z,111.04
2023-05-10T08:06:52.366Z,118.91
2023-05-10T08:07:52.334Z,123.81
2023-05-10T08:08:52.335Z,129.01
2023-05-10T08:09:52.563Z,134.56
2023-05-10T08:10:52.301Z,139.56
2023-05-10T08:11:52.376Z,143.69
2023-05-10T08:12:52.300Z,149.89
2023-05-10T08:13:52.338Z,152.99
2023-05-10T08:14:52.551Z,156.15
2023-05-10T08:15:52.352Z,161.48
2023-05-10T08:16:52.315Z,163.05
2023-05-10T08:17:52.345Z,167.40
2023-05-10T08:18:52.313Z,171.08
2023-05-10T08:19:52.551Z,172.92
2023-05-10T08:20:52.296Z,173.99
2023-05-10T08:21:52.288Z,177.94
2023-05-10T08:22:52.286Z,182.20
2023-05-10T08:23:52.262Z,185.58
2023-05-10T08:24:52.577Z,186.83
2023-05-10T08:25:52.205Z,190.51
2023-05-10T08:26:52.257Z,194.36
2023-05-10T08:27:52.324Z,196.70
2023-05-10T08:28:52.318Z,198.46
2023-05-10T08:29:52.610Z,200.73
2023-05-10T08:30:52.406Z,202.58
2023-05-10T08:31:52.520Z,204.09
2023-05-10T08:32:52.463Z,208.68
2023-05-10T08:33:52.498Z,209.85
2023-05-10T08:34:52.558Z,211.56
2023-05-10T08:35:52.543Z,214.33
2023-05-10T08:36:52.551Z,214.99
2023-05-10T08:37:52.605Z,217.14
2023-05-10T08:38:52.602Z,224.94
2023-05-10T08:39:53.098Z,225.11
2023-05-10T08:40:52.701Z,225.64
2023-05-10T08:41:52.660Z,231.80
2023-05-10T08:42:52.730Z,232.02
2023-05-10T08:43:52.730Z,223.50
2023-05-10T08:44:52.757Z,160.95
2023-05-10T08:45:52.843Z,183.79
2023-05-10T08:46:52.900Z,128.10
2023-05-10T08:47:52.891Z,32.80
2023-05-10T08:48:52.875Z,25.00
2023-05-10T08:49:53.059Z,41.74
2023-05-10T08:50:52.917Z,91.53
2023-05-10T08:51:52.940Z,126.87
2023-05-10T08:52:52.979Z,108.15
2023-05-10T08:53:52.992Z,135.55
2023-05-10T08:54:53.085Z,141.88
2023-05-10T08:55:53.073Z,156.03
2023-05-10T08:56:53.102Z,150.53
2023-05-10T08:57:53.148Z,139.99
2023-05-10T08:58:53.167Z,147.01
2023-05-10T08:59:53.565Z,136.58
2023-05-10T09:00:53.192Z,142.79
2023-05-10T09:01:53.228Z,139.27
2023-05-10T09:02:53.291Z,141.13
2023-05-10T09:03:53.281Z,136.67
2023-05-10T09:04:53.377Z,135.34
2023-05-10T09:05:53.320Z,128.83
2023-05-10T09:06:53.298Z,125.19
2023-05-10T09:07:53.300Z,118.84
2023-05-10T09:08:53.352Z,115.56
2023-05-10T09:09:53.356Z,113.17
2023-05-10T09:10:53.596Z,109.94
2023-05-10T09:11:53.424Z,107.99
2023-05-10T09:12:53.404Z,107.56
2023-05-10T09:13:53.471Z,105.31
2023-05-10T09:14:53.492Z,102.27
2023-05-10T09:15:53.565Z,100.11
2023-05-10T09:16:53.535Z,99.36
2023-05-10T09:17:53.621Z,93.39
2023-05-10T09:18:53.592Z,92.55
2023-05-10T09:19:53.619Z,92.69
2023-05-10T09:20:53.665Z,90.82
2023-05-10T09:21:53.644Z,84.58
2023-05-10T09:22:53.690Z,82.87
2023-05-10T09:23:53.730Z,79.47
2023-05-10T09:24:53.772Z,76.27
2023-05-10T09:25:53.808Z,76.60
2023-05-10T09:26:53.818Z,75.93
2023-05-10T09:27:53.882Z,71.57
2023-05-10T09:28:53.940Z,70.97
2023-05-10T09:29:53.938Z,69.12
2023-05-10T09:30:54.015Z,65.60
2023-05-10T09:31:54.056Z,63.22
2023-05-10T09:32:55.050Z,63.39
2023-05-10T09:33:53.997Z,63.87
2023-05-10T09:34:54.024Z,64.64
2023-05-10T09:35:54.095Z,61.97
2023-05-10T09:36:53.978Z,59.94
2023-05-10T09:37:54.002Z,61.06
2023-05-10T09:38:53.991Z,58.35
2023-05-10T09:39:53.974Z,58.81
2023-05-10T09:40:54.083Z,57.35
2023-05-10T09:41:53.942Z,54.98
2023-05-10T09:42:53.971Z,52.57
2023-05-10T09:43:54.003Z,56.33
2023-05-10T09:44:54.056Z,55.25
2023-05-10T09:45:54.637Z,57.00
2023-05-10T09:46:54.173Z,57.01
2023-05-10T09:47:54.327Z,58.32
2023-05-10T09:48:54.293Z,57.28
2023-05-10T09:49:54.351Z,58.19
2023-05-10T09:50:54.635Z,56.95
2023-05-10T09:51:54.416Z,56.98
2023-05-10T09:52:54.465Z,59.76
2023-05-10T09:53:54.512Z,60.35
2023-05-10T09:54:55.470Z,60.03
2023-05-10T09:55:54.488Z,60.38
2023-05-10T09:56:54.488Z,60.69
2023-05-10T09:57:54.490Z,55.16
2023-05-10T09:58:54.451Z,56.86
2023-05-10T09:59:54.473Z,57.67
2023-05-10T10:00:54.478Z,61.01
2023-05-10T10:01:54.575Z,60.51
2023-05-10T10:02:54.447Z,59.85
2023-05-10T10:03:54.432Z,63.41
2023-05-10T10:04:54.480Z,61.80
2023-05-10T10:05:54.467Z,61.05
2023-05-10T10:06:54.525Z,60.03
2023-05-10T10:07:54.552Z,61.98
2023-05-10T10:08:56.696Z,58.09
2023-05-10T10:09:54.626Z,55.36
2023-05-10T10:10:55.087Z,53.00
2023-05-10T10:11:54.725Z,52.69
2023-05-10T10:12:54.735Z,46.34
2023-05-10T10:13:54.717Z,45.04
2023-05-10T10:14:54.794Z,41.84
2023-05-10T10:15:54.824Z,40.60
2023-05-10T10:17:06.407Z,40.96
2023-05-10T10:17:55.888Z,38.96
2023-05-10T10:18:54.894Z,36.50
2023-05-10T10:19:54.849Z,34.73
2023-05-10T10:20:54.832Z,32.33
2023-05-10T10:21:54.809Z,29.43
2023-05-10T10:22:54.810Z,32.08
2023-05-10T10:23:54.787Z,34.20
2023-05-10T10:24:54.796Z,30.13
2023-05-10T10:25:54.768Z,35.24
2023-05-10T10:26:54.799Z,34.15
2023-05-10T10:27:54.788Z,30.68
2023-05-10T10:28:54.755Z,33.17
2023-05-10T10:29:54.766Z,32.55
2023-05-10T10:30:55.133Z,31.64
2023-05-10T10:31:54.960Z,33.85
2023-05-10T10:32:54.794Z,30.43
2023-05-10T10:33:54.834Z,30.93
2023-05-10T10:34:54.850Z,29.15
2023-05-10T10:35:55.142Z,29.58
2023-05-10T10:36:54.923Z,28.34
2023-05-10T10:37:54.891Z,30.73
2023-05-10T10:38:54.936Z,29.43
2023-05-10T10:39:54.941Z,30.85
2023-05-10T10:40:55.104Z,32.81
2023-05-10T10:41:54.964Z,33.67
2023-05-10T10:42:54.985Z,34.49
2023-05-10T10:43:55.010Z,34.22
2023-05-10T10:44:55.016Z,32.21
2023-05-10T10:45:55.035Z,31.50
2023-05-10T10:46:55.061Z,32.84
2023-05-10T10:47:55.174Z,37.02
2023-05-10T10:48:55.079Z,39.49
2023-05-10T10:49:55.110Z,40.70
2023-05-10T10:50:55.647Z,41.40
2023-05-10T10:51:55.117Z,40.09
2023-05-10T10:52:55.176Z,40.07
2023-05-10T10:53:55.192Z,38.58
2023-05-10T10:54:55.182Z,24.49
2023-05-10T10:55:55.193Z,25.00
2023-05-10T10:56:55.217Z,25.00
2023-05-10T10:57:55.268Z,28.02
2023-05-10T10:58:55.232Z,36.79
2023-05-10T10:59:55.277Z,39.95
2023-05-10T11:00:55.627Z,67.73
2023-05-10T11:01:55.347Z,59.77
2023-05-10T11:02:55.466Z,62.93
2023-05-10T11:03:55.428Z,70.24
2023-05-10T11:04:55.461Z,64.54
2023-05-10T11:05:55.629Z,81.33
2023-05-10T11:06:56.153Z,115.14
2023-05-10T11:07:55.603Z,114.94
2023-05-10T11:08:55.652Z,119.41
2023-05-10T11:09:55.686Z,127.73
2023-05-10T11:10:56.638Z,110.28
2023-05-10T11:11:55.788Z,75.95
2023-05-10T11:12:55.833Z,66.66
2023-05-10T11:13:55.906Z,47.29
2023-05-10T11:14:55.931Z,30.05
2023-05-10T11:15:56.116Z,25.00
2023-05-10T11:16:55.970Z,24.89
2023-05-10T11:17:55.990Z,25.31
2023-05-10T11:18:56.108Z,30.07
2023-05-10T11:19:55.999Z,29.15
2023-05-10T11:20:56.156Z,32.44
2023-05-10T11:21:56.016Z,37.97
2023-05-10T11:22:56.061Z,36.41
2023-05-10T11:23:56.066Z,43.75
2023-05-10T11:24:56.131Z,40.35
2023-05-10T11:25:56.108Z,35.32
2023-05-10T11:26:56.104Z,32.96
2023-05-10T11:27:56.117Z,32.11
2023-05-10T11:28:56.171Z,24.83
2023-05-10T11:29:56.169Z,25.00
2023-05-10T11:30:56.697Z,27.21
2023-05-10T11:31:56.222Z,24.33
2023-05-10T11:32:56.319Z,27.57
2023-05-10T11:33:56.375Z,32.22
2023-05-10T11:34:56.356Z,40.85
2023-05-10T11:35:56.693Z,42.89
2023-05-10T11:36:56.452Z,51.99
2023-05-10T11:37:56.481Z,61.42
2023-05-10T11:38:56.494Z,69.83
2023-05-10T11:39:56.504Z,77.32
2023-05-10T11:40:56.640Z,78.45
2023-05-10T11:41:56.549Z,82.73
2023-05-10T11:42:56.545Z,89.39
2023-05-10T11:43:56.548Z,91.76
2023-05-10T11:44:56.585Z,95.18
2023-05-10T11:45:56.692Z,99.23
2023-05-10T11:46:56.647Z,100.98
2023-05-10T11:47:56.794Z,103.35
2023-05-10T11:48:56.658Z,104.50
2023-05-10T11:49:56.681Z,107.32
2023-05-10T11:50:57.134Z,109.37
2023-05-10T11:51:56.661Z,110.42
2023-05-10T11:52:56.684Z,111.49
2023-05-10T11:53:56.741Z,114.38
2023-05-10T11:54:56.731Z,115.98
2023-05-10T11:55:56.754Z,117.26
2023-05-10T11:56:56.766Z,119.13
2023-05-10T11:57:56.818Z,119.17
2023-05-10T11:58:56.835Z,122.17
2023-05-10T11:59:56.831Z,125.50
2023-05-10T12:00:57.154Z,125.12
2023-05-10T12:01:56.864Z,123.51
2023-05-10T12:02:56.947Z,123.45
2023-05-10T12:03:57.024Z,125.38
2023-05-10T12:04:57.005Z,125.98
2023-05-10T12:05:56.999Z,126.05
2023-05-10T12:06:57.145Z,127.05
2023-05-10T12:07:57.089Z,127.99
2023-05-10T12:08:57.111Z,129.66
2023-05-10T12:09:57.123Z,130.35
2023-05-10T12:10:57.654Z,128.93
2023-05-10T12:11:57.236Z,130.11
2023-05-10T12:12:57.273Z,129.52
2023-05-10T12:13:57.554Z,131.94
2023-05-10T12:14:57.335Z,132.00
2023-05-10T12:15:57.759Z,134.20
2023-05-10T12:16:57.470Z,134.00
2023-05-10T12:17:57.502Z,131.66
2023-05-10T12:18:57.692Z,135.81
2023-05-10T12:19:57.634Z,135.12
2023-05-10T12:20:57.556Z,136.65
2023-05-10T12:21:57.618Z,104.74
2023-05-10T12:22:59.741Z,83.92
2023-05-10T12:23:57.609Z,75.55
2023-05-10T12:24:57.567Z,69.04
2023-05-10T12:25:57.634Z,63.58
2023-05-10T12:26:57.574Z,62.53
2023-05-10T12:27:57.565Z,64.57
2023-05-10T12:28:57.553Z,69.56
2023-05-10T12:29:57.558Z,74.10
2023-05-10T12:30:57.573Z,75.78
2023-05-10T12:31:57.632Z,81.92
2023-05-10T12:32:57.595Z,83.72
2023-05-10T12:33:57.593Z,88.76
2023-05-10T12:34:57.529Z,92.32
2023-05-10T12:35:57.505Z,97.17
2023-05-10T12:36:57.632Z,103.59
2023-05-10T12:37:57.507Z,111.99
2023-05-10T12:38:57.511Z,117.43
2023-05-10T12:39:57.481Z,120.89
2023-05-10T12:40:57.537Z,121.90
2023-05-10T12:41:57.495Z,120.57
2023-05-10T12:42:57.487Z,122.38
2023-05-10T12:43:57.481Z,123.10
2023-05-10T12:44:57.461Z,123.63
2023-05-10T12:45:57.544Z,123.90
2023-05-10T12:46:57.428Z,123.52